Time;durP1;ratioP1;P1;durP2;ratioP2;P2;SDS_P1;SDS_P2;PMS_P1;PMS_P2;Temp;Humidity;BMP_temperature;BMP_pressure;BME280_temperature;BME280_humidity;BME280_pressure;Samples;Min_cycle;Max_cycle;Signal;HPM_P1;HPM_P2
2022/05/20 00:00:46;;;;;;;8.35;1.80;;;13.70;99.90;;;;;;5092766;28;20160;-62
2022/05/20 00:03:12;;;;;;;13.85;2.15;;;13.70;99.90;;;;;;5092329;28;20542;-63
2022/05/20 00:05:39;;;;;;;9.73;1.90;;;13.70;99.90;;;;;;5092267;28;20186;-63
2022/05/20 00:08:05;;;;;;;15.07;1.70;;;13.70;99.90;;;;;;5092165;28;20171;-63
2022/05/20 00:10:31;;;;;;;14.75;2.03;;;13.70;99.90;;;;;;5092410;28;20225;-63
2022/05/20 00:12:59;;;;;;;9.50;1.60;;;13.60;99.90;;;;;;5092268;28;20180;-63
2022/05/20 00:15:26;;;;;;;6.47;1.63;;;13.50;99.90;;;;;;5092160;28;20180;-63
2022/05/20 00:17:53;;;;;;;9.43;1.80;;;13.50;99.90;;;;;;5092296;28;20174;-63
2022/05/20 00:20:20;;;;;;;15.57;2.15;;;13.50;99.90;;;;;;5092147;28;20546;-63
2022/05/20 00:22:46;;;;;;;15.80;2.40;;;13.50;99.90;;;;;;5092335;28;20176;-63
2022/05/20 00:27:59;;;;;;;9.18;2.42;;;13.30;99.90;;;;;;5092103;28;20699;-64
2022/05/20 00:30:25;;;;;;;10.77;2.28;;;13.40;99.90;;;;;;5091947;28;20176;-63
2022/05/20 00:32:52;;;;;;;11.45;2.30;;;13.30;99.90;;;;;;5090313;28;20552;-63
2022/05/20 00:35:18;;;;;;;10.48;2.38;;;13.20;99.90;;;;;;5091977;28;20210;-63
2022/05/20 00:37:44;;;;;;;11.10;2.70;;;13.30;99.90;;;;;;5091950;28;20591;-64
2022/05/20 00:40:12;;;;;;;12.75;2.17;;;13.20;99.90;;;;;;5091986;28;20216;-63
2022/05/20 00:42:38;;;;;;;11.18;2.65;;;13.20;99.90;;;;;;5091757;28;20220;-63
2022/05/20 00:45:04;;;;;;;10.65;2.35;;;13.20;99.90;;;;;;5091677;28;20175;-63
2022/05/20 00:47:30;;;;;;;14.30;2.25;;;13.10;99.90;;;;;;5091570;28;20176;-62
2022/05/20 00:49:58;;;;;;;16.83;2.80;;;13.10;99.90;;;;;;5091436;28;20347;-63
2022/05/20 00:52:28;;;;;;;14.73;3.20;;;13.20;99.90;;;;;;5091551;28;20176;-64
2022/05/20 00:54:59;;;;;;;18.13;2.40;;;13.20;99.90;;;;;;5091395;28;20255;-64
2022/05/20 00:57:29;;;;;;;7.32;1.85;;;13.20;99.90;;;;;;5091572;28;20171;-63
2022/05/20 01:00:05;;;;;;;8.02;1.92;;;13.10;99.90;;;;;;5091509;28;20298;-62
2022/05/20 01:02:33;;;;;;;9.25;1.98;;;13.10;99.90;;;;;;5091942;28;20176;-63
2022/05/20 01:05:00;;;;;;;4.72;1.38;;;13.20;99.90;;;;;;5091683;28;20164;-63
2022/05/20 01:07:29;;;;;;;8.77;1.80;;;13.20;99.90;;;;;;5091974;28;20176;-62
2022/05/20 01:09:55;;;;;;;11.65;1.85;;;13.20;99.90;;;;;;5092249;28;20195;-63
2022/05/20 01:12:24;;;;;;;14.57;2.17;;;13.20;99.90;;;;;;5092117;28;20553;-63
2022/05/20 01:14:51;;;;;;;13.02;2.20;;;13.20;99.90;;;;;;5091591;28;20168;-63
2022/05/20 01:17:17;;;;;;;7.57;1.90;;;13.10;99.90;;;;;;5091443;28;20220;-63
2022/05/20 01:19:50;;;;;;;8.47;1.40;;;13.20;99.90;;;;;;5091044;28;20175;-63
2022/05/20 01:22:34;;;;;;;6.15;1.65;;;13.30;99.90;;;;;;5091317;28;20240;-64
2022/05/20 01:25:01;;;;;;;5.10;1.55;;;13.30;99.90;;;;;;5090830;28;20199;-63
2022/05/20 01:27:27;;;;;;;14.25;2.08;;;13.20;99.90;;;;;;5090868;28;20172;-63
2022/05/20 01:29:53;;;;;;;11.80;1.88;;;13.20;99.90;;;;;;5090572;28;20264;-63
2022/05/20 01:32:19;;;;;;;9.50;2.10;;;13.20;99.90;;;;;;5090817;28;20584;-63
2022/05/20 01:34:44;;;;;;;15.20;2.05;;;13.20;99.90;;;;;;5090900;28;20164;-63
2022/05/20 01:37:10;;;;;;;14.10;2.00;;;13.20;99.90;;;;;;5090866;28;20255;-63
2022/05/20 01:39:37;;;;;;;9.88;2.15;;;13.10;99.90;;;;;;5090687;28;20611;-63
2022/05/20 01:42:16;;;;;;;14.65;2.60;;;13.10;99.90;;;;;;5090874;28;20171;-63
2022/05/20 01:45:12;;;;;;;21.40;2.80;;;13.10;99.90;;;;;;5090754;28;20250;-63
2022/05/20 01:47:47;;;;;;;11.60;2.40;;;13.10;99.90;;;;;;5085167;28;20349;-64
2022/05/20 01:50:20;;;;;;;8.90;1.88;;;13.10;99.90;;;;;;5090344;28;20261;-64
2022/05/20 01:52:59;;;;;;;13.88;2.20;;;13.10;99.90;;;;;;5090654;28;20167;-63
2022/05/20 01:55:35;;;;;;;14.10;1.80;;;13.00;99.90;;;;;;5090196;28;20217;-63
2022/05/20 01:58:18;;;;;;;6.40;1.88;;;13.00;99.90;;;;;;5090555;28;20175;-64
2022/05/20 02:00:46;;;;;;;17.30;2.72;;;13.00;99.90;;;;;;5090663;28;20233;-63
2022/05/20 02:03:22;;;;;;;5.60;1.58;;;12.90;99.90;;;;;;5090686;28;20271;-64
2022/05/20 02:05:59;;;;;;;8.70;1.55;;;12.90;99.90;;;;;;5090398;28;20254;-65
2022/05/20 02:08:58;;;;;;;7.07;1.83;;;12.90;99.90;;;;;;5090604;28;20228;-62
2022/05/20 02:11:32;;;;;;;7.63;1.47;;;12.90;99.90;;;;;;5079033;28;20187;-63
2022/05/20 02:14:31;;;;;;;8.45;1.65;;;13.00;99.90;;;;;;5090146;28;20190;-63
2022/05/20 02:17:17;;;;;;;10.38;1.55;;;13.00;99.90;;;;;;5090237;28;20163;-63
2022/05/20 02:19:52;;;;;;;5.72;1.73;;;13.10;99.90;;;;;;5090410;28;20171;-63
2022/05/20 02:22:22;;;;;;;10.35;2.03;;;13.10;99.90;;;;;;5090336;28;20220;-63
2022/05/20 02:24:49;;;;;;;17.67;2.10;;;13.20;99.90;;;;;;5090369;28;20191;-64
2022/05/20 02:27:22;;;;;;;12.25;2.05;;;13.20;99.90;;;;;;5090414;28;20185;-63
2022/05/20 02:29:58;;;;;;;11.00;1.83;;;13.20;99.90;;;;;;5090195;28;20783;-63
2022/05/20 02:32:41;;;;;;;10.50;1.65;;;13.20;99.90;;;;;;5089982;28;20634;-63
2022/05/20 02:35:07;;;;;;;24.27;2.13;;;13.20;99.90;;;;;;5090052;28;20203;-64
2022/05/20 02:37:35;;;;;;;10.35;1.65;;;13.30;99.90;;;;;;5090033;28;20165;-63
2022/05/20 02:40:04;;;;;;;18.65;1.58;;;13.20;99.90;;;;;;5089844;28;20172;-63
2022/05/20 02:42:30;;;;;;;10.48;1.60;;;13.20;99.90;;;;;;5090139;28;20658;-63
2022/05/20 02:44:59;;;;;;;7.10;1.90;;;13.10;99.90;;;;;;5090225;28;20168;-63
2022/05/20 02:47:26;;;;;;;12.57;2.25;;;13.10;99.90;;;;;;5090141;28;20183;-63
2022/05/20 02:49:51;;;;;;;9.00;1.63;;;13.20;99.90;;;;;;5089706;28;20745;-63
2022/05/20 02:52:17;;;;;;;8.73;1.48;;;13.20;99.90;;;;;;5090021;28;20250;-63
2022/05/20 02:54:43;;;;;;;17.17;2.37;;;13.10;99.90;;;;;;5089844;28;20535;-64
2022/05/20 02:57:09;;;;;;;8.07;1.80;;;13.20;99.90;;;;;;5090227;28;20200;-64
2022/05/20 03:05:20;;;;;;;11.07;2.10;;;13.10;99.90;;;;;;5084438;28;20198;-61
2022/05/20 03:07:46;;;;;;;20.08;1.83;;;13.10;99.90;;;;;;5091275;28;20243;-63
2022/05/20 03:10:12;;;;;;;17.38;2.25;;;13.20;99.90;;;;;;5093411;28;20215;-63
2022/05/20 03:12:37;;;;;;;12.93;2.05;;;13.20;99.90;;;;;;5093490;28;20255;-63
2022/05/20 03:15:10;;;;;;;12.82;1.88;;;13.20;99.90;;;;;;5092112;28;20271;-64
2022/05/20 03:17:37;;;;;;;11.32;1.67;;;13.20;99.90;;;;;;5093398;28;20172;-63
2022/05/20 03:20:05;;;;;;;13.98;1.98;;;13.10;99.90;;;;;;5093276;28;20610;-64
2022/05/20 03:22:32;;;;;;;6.50;1.33;;;13.10;99.90;;;;;;5093371;28;20172;-64
2022/05/20 03:24:58;;;;;;;9.88;2.17;;;13.20;99.90;;;;;;5093104;28;20180;-63
2022/05/20 03:27:24;;;;;;;7.72;1.45;;;13.10;99.90;;;;;;5093148;28;20183;-63
2022/05/20 03:29:49;;;;;;;11.30;1.52;;;13.10;99.90;;;;;;5092867;28;20518;-63
2022/05/20 03:32:16;;;;;;;18.65;2.13;;;13.10;99.90;;;;;;5092899;28;20243;-64
2022/05/20 03:34:43;;;;;;;9.93;1.73;;;13.10;99.90;;;;;;5093129;28;20175;-63
2022/05/20 03:37:09;;;;;;;19.23;2.35;;;13.10;99.90;;;;;;5092997;28;20176;-64
2022/05/20 03:39:35;;;;;;;5.63;1.38;;;13.10;99.90;;;;;;5092838;28;20199;-63
2022/05/20 03:42:02;;;;;;;11.85;1.58;;;13.10;99.90;;;;;;5093055;28;20237;-63
2022/05/20 03:44:28;;;;;;;7.13;1.60;;;13.10;99.90;;;;;;5092780;28;20557;-62
2022/05/20 03:46:56;;;;;;;11.45;1.67;;;13.00;99.90;;;;;;5092747;28;20246;-63
2022/05/20 03:49:24;;;;;;;14.35;1.58;;;12.90;99.90;;;;;;5092519;28;20246;-63
2022/05/20 03:51:52;;;;;;;8.70;1.55;;;12.90;99.90;;;;;;5092642;28;20173;-63
2022/05/20 03:54:20;;;;;;;13.85;1.98;;;12.90;99.90;;;;;;5092836;28;20164;-63
2022/05/20 03:56:45;;;;;;;12.23;1.77;;;12.80;99.90;;;;;;5092660;28;20164;-63
2022/05/20 03:59:11;;;;;;;9.05;1.75;;;12.90;99.90;;;;;;5092553;28;20191;-63
2022/05/20 04:01:57;;;;;;;12.43;1.77;;;12.90;99.90;;;;;;5092576;28;20540;-63
2022/05/20 04:04:44;;;;;;;8.25;1.70;;;12.90;99.90;;;;;;5092339;28;20168;-63
2022/05/20 04:07:16;;;;;;;10.23;1.75;;;13.00;99.90;;;;;;5092299;28;20225;-63
2022/05/20 04:09:42;;;;;;;6.90;1.52;;;12.90;99.90;;;;;;5091009;28;20251;-63
2022/05/20 04:12:33;;;;;;;9.20;1.50;;;12.90;99.90;;;;;;5092184;28;20220;-64
2022/05/20 04:15:00;;;;;;;8.75;1.60;;;13.00;99.90;;;;;;5083835;28;20662;-64
2022/05/20 04:17:27;;;;;;;8.57;1.60;;;13.00;99.90;;;;;;5092267;28;20259;-63
2022/05/20 04:19:52;;;;;;;9.57;1.70;;;13.00;99.90;;;;;;5091995;28;20194;-63
2022/05/20 04:22:25;;;;;;;11.52;1.73;;;13.00;99.90;;;;;;5092087;28;20176;-63
2022/05/20 04:24:51;;;;;;;11.93;1.75;;;13.00;99.90;;;;;;5092165;28;20178;-64
2022/05/20 04:27:16;;;;;;;10.32;1.60;;;13.00;99.90;;;;;;5092451;28;20176;-65
2022/05/20 04:29:42;;;;;;;7.97;1.50;;;13.00;99.90;;;;;;5091863;28;20302;-63
2022/05/20 04:32:08;;;;;;;14.80;1.95;;;13.00;99.90;;;;;;5091870;28;20252;-62
2022/05/20 04:34:34;;;;;;;14.05;2.13;;;13.00;99.90;;;;;;5091676;28;20627;-62
2022/05/20 04:37:00;;;;;;;15.25;1.80;;;13.00;99.90;;;;;;5092144;28;20170;-63
2022/05/20 04:39:26;;;;;;;12.07;1.50;;;13.10;99.90;;;;;;5091815;28;20165;-63
2022/05/20 04:47:27;;;;;;;12.68;2.78;;;13.00;99.90;;;;;;5091908;28;20314;-63
2022/05/20 04:49:54;;;;;;;9.77;2.10;;;13.00;99.90;;;;;;5091274;28;20227;-63
2022/05/20 04:52:20;;;;;;;17.88;2.05;;;12.90;99.90;;;;;;5091530;28;20545;-63
2022/05/20 04:54:52;;;;;;;9.68;1.70;;;12.90;99.90;;;;;;5091447;28;20183;-63
2022/05/20 04:57:24;;;;;;;11.02;2.05;;;12.90;99.90;;;;;;5091643;28;20536;-64
2022/05/20 04:59:53;;;;;;;11.02;1.75;;;12.90;99.90;;;;;;5091173;28;20176;-63
2022/05/20 05:02:20;;;;;;;12.98;2.13;;;12.90;99.90;;;;;;5091301;28;20164;-63
2022/05/20 05:04:46;;;;;;;9.15;1.92;;;12.90;99.90;;;;;;5091206;28;20183;-63
2022/05/20 05:07:12;;;;;;;13.95;1.60;;;12.90;99.90;;;;;;5091333;28;20171;-63
2022/05/20 05:09:39;;;;;;;9.38;1.70;;;12.90;99.90;;;;;;5091065;28;20582;-63
2022/05/20 05:12:06;;;;;;;8.35;1.98;;;12.90;99.90;;;;;;5090960;28;20172;-63
2022/05/20 05:14:43;;;;;;;9.65;2.00;;;12.90;99.90;;;;;;5091152;28;20623;-63
2022/05/20 05:17:11;;;;;;;16.45;2.28;;;13.00;99.90;;;;;;5091274;28;20544;-63
2022/05/20 05:19:38;;;;;;;14.75;2.20;;;13.00;99.90;;;;;;5091046;28;20179;-63
2022/05/20 05:22:08;;;;;;;9.88;2.05;;;13.00;99.90;;;;;;5090774;28;20228;-63
2022/05/20 05:24:35;;;;;;;13.65;2.25;;;13.00;99.90;;;;;;5090874;28;20188;-63
2022/05/20 05:27:01;;;;;;;8.60;1.67;;;13.00;99.90;;;;;;5091037;28;20176;-63
2022/05/20 05:29:27;;;;;;;5.90;1.70;;;13.10;99.90;;;;;;5090632;28;20214;-63
2022/05/20 05:31:53;;;;;;;9.07;2.20;;;13.10;99.90;;;;;;5089996;28;20176;-63
2022/05/20 05:34:19;;;;;;;13.82;1.88;;;13.20;99.90;;;;;;5090667;28;20181;-62
2022/05/20 05:36:44;;;;;;;11.77;1.65;;;13.30;99.90;;;;;;5090620;28;20643;-64
2022/05/20 05:39:10;;;;;;;13.40;1.88;;;13.30;99.90;;;;;;5090590;28;20168;-63
2022/05/20 05:41:36;;;;;;;13.33;1.90;;;13.20;99.90;;;;;;5090619;28;20215;-63
2022/05/20 05:44:03;;;;;;;9.33;1.97;;;13.20;99.90;;;;;;5090638;28;20172;-62
2022/05/20 05:46:30;;;;;;;11.48;2.03;;;13.20;99.90;;;;;;5090626;28;20176;-64
2022/05/20 05:48:56;;;;;;;14.82;2.05;;;13.20;99.90;;;;;;5088970;28;20231;-64
2022/05/20 05:51:25;;;;;;;15.18;2.10;;;13.40;99.90;;;;;;5090344;28;20199;-61
2022/05/20 05:53:52;;;;;;;15.60;1.87;;;13.10;99.90;;;;;;5090438;28;20179;-63
2022/05/20 05:56:17;;;;;;;7.18;1.65;;;13.20;99.90;;;;;;5090624;28;20530;-64
2022/05/20 05:58:43;;;;;;;15.05;1.83;;;13.10;99.90;;;;;;5090295;28;20171;-64
2022/05/20 06:01:10;;;;;;;8.57;2.00;;;13.10;99.90;;;;;;5090732;28;20747;-63
2022/05/20 06:03:35;;;;;;;12.82;1.55;;;13.10;99.90;;;;;;5090329;28;20246;-63
2022/05/20 06:06:02;;;;;;;12.10;1.80;;;13.10;99.90;;;;;;5090389;28;20262;-62
2022/05/20 06:08:27;;;;;;;10.75;1.98;;;13.10;99.90;;;;;;5090263;28;20713;-63
2022/05/20 06:10:53;;;;;;;12.23;1.85;;;13.20;99.90;;;;;;5090119;28;20171;-63
2022/05/20 06:13:23;;;;;;;12.40;2.13;;;13.20;99.90;;;;;;5090367;28;20191;-63
2022/05/20 06:15:49;;;;;;;10.95;2.20;;;13.30;99.90;;;;;;5090385;28;20179;-63
2022/05/20 06:18:15;;;;;;;11.55;1.80;;;13.30;99.90;;;;;;5090581;28;20164;-63
2022/05/20 06:20:40;;;;;;;10.95;1.90;;;13.30;99.90;;;;;;5090426;28;20627;-63
2022/05/20 06:23:06;;;;;;;14.48;2.30;;;13.20;99.90;;;;;;5089914;28;20642;-63
2022/05/20 06:25:32;;;;;;;7.57;1.50;;;13.40;99.90;;;;;;5090069;28;20562;-63
2022/05/20 06:28:12;;;;;;;11.20;2.40;;;13.30;99.90;;;;;;5089988;28;20160;-64
2022/05/20 06:30:39;;;;;;;6.68;1.70;;;13.30;99.90;;;;;;5090131;28;20252;-63
2022/05/20 06:33:05;;;;;;;15.23;2.05;;;13.20;99.90;;;;;;5090937;28;20658;-63
2022/05/20 06:41:01;;;;;;;11.73;1.73;;;13.20;99.90;;;;;;5090012;28;20194;-63
2022/05/20 06:43:27;;;;;;;11.57;2.58;;;13.10;99.90;;;;;;5093826;28;20167;-63
2022/05/20 06:45:58;;;;;;;8.73;2.25;;;13.10;99.90;;;;;;5093851;28;20167;-64
2022/05/20 06:48:46;;;;;;;10.80;2.20;;;13.10;99.90;;;;;;5093534;28;20599;-63
2022/05/20 06:51:15;;;;;;;12.90;2.17;;;13.10;99.90;;;;;;5093763;28;20187;-64
2022/05/20 06:53:41;;;;;;;12.80;1.92;;;13.00;99.90;;;;;;5093563;28;20642;-63
2022/05/20 06:56:07;;;;;;;12.57;2.50;;;13.10;99.90;;;;;;5093650;28;20275;-64
2022/05/20 06:58:33;;;;;;;15.07;2.20;;;13.10;99.90;;;;;;5093491;28;20172;-63
2022/05/20 07:00:59;;;;;;;11.82;2.40;;;13.10;99.90;;;;;;5093374;28;20175;-64
2022/05/20 07:03:25;;;;;;;13.52;2.10;;;13.20;99.90;;;;;;5093474;28;20163;-62
2022/05/20 07:05:51;;;;;;;12.68;2.10;;;13.20;99.90;;;;;;5093423;28;20205;-64
2022/05/20 07:08:17;;;;;;;12.48;2.45;;;13.20;99.90;;;;;;5093745;28;20182;-64
2022/05/20 07:10:43;;;;;;;9.43;1.60;;;13.30;99.90;;;;;;5093260;28;20176;-62
2022/05/20 07:13:08;;;;;;;16.88;2.30;;;13.30;99.90;;;;;;5093375;28;20176;-64
2022/05/20 07:15:34;;;;;;;8.80;2.13;;;13.40;99.90;;;;;;5093441;28;20638;-64
2022/05/20 07:18:00;;;;;;;12.82;2.05;;;13.40;99.90;;;;;;5093251;28;20743;-64
2022/05/20 07:20:26;;;;;;;11.00;2.17;;;13.60;99.90;;;;;;5093435;28;20221;-64
2022/05/20 07:22:51;;;;;;;13.32;1.90;;;13.70;99.90;;;;;;5093126;28;20177;-63
2022/05/20 07:25:19;;;;;;;6.00;1.45;;;13.70;99.90;;;;;;5093210;28;20225;-63
2022/05/20 07:27:45;;;;;;;6.93;1.50;;;13.70;99.90;;;;;;5093017;28;20626;-63
2022/05/20 07:30:13;;;;;;;10.73;1.80;;;13.80;99.90;;;;;;5092801;28;20208;-63
2022/05/20 07:32:38;;;;;;;7.82;1.70;;;13.80;99.90;;;;;;5093099;28;20168;-63
2022/05/20 07:35:05;;;;;;;9.52;1.58;;;13.90;99.90;;;;;;5092890;28;20174;-63
2022/05/20 07:37:31;;;;;;;9.40;1.65;;;13.80;99.90;;;;;;5092845;28;20176;-64
2022/05/20 07:39:57;;;;;;;10.82;1.70;;;13.80;99.90;;;;;;5092765;28;20279;-63
2022/05/20 07:42:22;;;;;;;9.32;2.15;;;13.70;99.90;;;;;;5092915;28;20222;-65
2022/05/20 07:44:49;;;;;;;7.72;1.70;;;13.80;99.90;;;;;;5092525;28;20650;-65
2022/05/20 07:47:15;;;;;;;8.05;1.80;;;13.70;99.90;;;;;;5092622;28;20654;-62
2022/05/20 07:49:41;;;;;;;7.18;1.63;;;13.80;99.90;;;;;;5091935;28;20234;-64
2022/05/20 07:52:09;;;;;;;9.55;1.65;;;13.70;99.90;;;;;;5092292;28;20618;-63
2022/05/20 07:54:40;;;;;;;8.98;1.75;;;13.80;99.90;;;;;;5091880;28;20308;-63
2022/05/20 07:57:13;;;;;;;10.88;1.73;;;13.80;99.90;;;;;;5092430;28;20160;-64
2022/05/20 07:59:53;;;;;;;4.53;1.50;;;13.80;99.90;;;;;;5092245;28;20266;-64
2022/05/20 08:02:22;;;;;;;4.95;1.30;;;13.80;99.90;;;;;;5092352;28;20199;-64
2022/05/20 08:05:01;;;;;;;4.32;1.30;;;13.80;99.90;;;;;;5092461;28;20175;-64
2022/05/20 08:07:33;;;;;;;9.90;1.50;;;13.80;99.90;;;;;;5092560;28;20160;-64
2022/05/20 08:10:07;;;;;;;5.75;1.50;;;13.70;99.90;;;;;;5090735;28;20388;-64
2022/05/20 08:12:33;;;;;;;5.78;1.30;;;13.60;99.90;;;;;;5092407;28;20199;-64
2022/05/20 08:14:58;;;;;;;7.90;1.17;;;13.50;99.90;;;;;;5092159;28;20217;-63
2022/05/20 08:17:25;;;;;;;7.20;1.20;;;13.30;99.90;;;;;;5092074;28;20217;-63
2022/05/20 08:19:55;;;;;;;8.52;1.38;;;13.30;99.90;;;;;;5092643;28;20195;-64
2022/05/20 08:22:22;;;;;;;6.72;1.38;;;13.40;99.90;;;;;;5092625;28;20194;-64
2022/05/20 08:24:52;;;;;;;10.70;1.27;;;13.50;99.90;;;;;;5091368;28;20175;-63
2022/05/20 08:27:23;;;;;;;5.45;1.20;;;13.60;99.90;;;;;;5092583;28;20700;-64
2022/05/20 08:29:50;;;;;;;10.15;1.45;;;13.60;99.90;;;;;;5092394;28;20226;-64
2022/05/20 08:32:15;;;;;;;8.90;1.30;;;13.50;99.90;;;;;;5092334;28;20176;-65
2022/05/20 08:34:43;;;;;;;11.40;1.37;;;13.50;99.90;;;;;;5092450;28;20534;-63
2022/05/20 08:37:09;;;;;;;23.40;6.88;;;13.50;99.90;;;;;;5092380;28;20172;-64
2022/05/20 08:39:35;;;;;;;6.88;1.60;;;13.40;99.90;;;;;;5092426;28;20187;-64
2022/05/20 08:42:01;;;;;;;7.90;1.85;;;13.40;99.90;;;;;;5092198;28;20167;-64
2022/05/20 08:44:27;;;;;;;8.75;1.83;;;13.50;99.90;;;;;;5092304;28;20164;-63
2022/05/20 08:47:21;;;;;;;8.70;1.60;;;13.60;99.90;;;;;;5092097;28;20236;-64
2022/05/20 08:49:47;;;;;;;8.82;1.90;;;13.70;99.90;;;;;;5091934;28;20335;-65
2022/05/20 08:52:13;;;;;;;9.70;2.13;;;13.90;99.90;;;;;;5091956;28;20544;-64
2022/05/20 08:54:41;;;;;;;6.53;1.83;;;14.00;99.90;;;;;;5091980;28;20171;-63
2022/05/20 08:57:33;;;;;;;9.23;1.77;;;14.00;99.90;;;;;;5091876;28;20266;-64
2022/05/20 09:00:00;;;;;;;7.70;2.03;;;14.10;99.90;;;;;;5091816;28;20198;-64
2022/05/20 09:02:26;;;;;;;7.10;1.52;;;14.10;99.90;;;;;;5091874;28;20172;-65
2022/05/20 09:04:52;;;;;;;8.20;1.55;;;14.20;99.90;;;;;;5090999;28;20172;-64
2022/05/20 09:07:20;;;;;;;12.57;2.28;;;14.30;99.90;;;;;;5091503;28;20174;-64
2022/05/20 09:09:49;;;;;;;10.20;1.65;;;14.30;99.90;;;;;;5091673;28;20217;-64
2022/05/20 09:12:38;;;;;;;5.97;1.60;;;14.20;99.90;;;;;;5091671;28;20707;-64
2022/05/20 09:18:11;;;;;;;6.45;1.58;;;14.50;99.90;;;;;;5091536;28;20190;-64
2022/05/20 09:20:45;;;;;;;6.63;1.63;;;14.30;99.90;;;;;;5091523;28;20190;-63
2022/05/20 09:23:13;;;;;;;7.00;1.40;;;14.10;99.90;;;;;;5091505;28;20273;-63
2022/05/20 09:25:46;;;;;;;7.72;2.10;;;14.10;99.90;;;;;;5091442;28;20199;-62
2022/05/20 09:28:41;;;;;;;5.72;1.23;;;14.00;99.90;;;;;;5091295;28;20175;-64
2022/05/20 09:31:13;;;;;;;7.63;1.38;;;14.20;99.90;;;;;;5080463;28;20187;-64
2022/05/20 09:33:40;;;;;;;6.45;1.38;;;14.00;99.90;;;;;;5091512;28;20580;-64
2022/05/20 09:36:06;;;;;;;5.28;1.27;;;13.90;99.90;;;;;;5091456;28;20266;-65
2022/05/20 09:38:39;;;;;;;4.53;1.40;;;13.90;99.90;;;;;;5091396;28;20229;-65
2022/05/20 09:41:23;;;;;;;6.78;1.63;;;14.00;99.90;;;;;;5091273;28;20176;-64
2022/05/20 09:43:57;;;;;;;5.78;1.48;;;14.20;99.90;;;;;;5091298;28;20273;-65
2022/05/20 09:46:51;;;;;;;7.85;1.65;;;14.20;99.90;;;;;;5091315;28;20236;-65
2022/05/20 09:49:37;;;;;;;7.90;1.30;;;14.30;99.90;;;;;;5090869;28;20231;-64
2022/05/20 09:52:12;;;;;;;6.57;1.27;;;14.30;99.90;;;;;;5090648;28;20194;-64
2022/05/20 09:54:41;;;;;;;7.72;1.42;;;14.40;99.90;;;;;;5091150;28;20184;-64
2022/05/20 09:57:27;;;;;;;8.75;1.52;;;14.40;99.90;;;;;;5091013;28;20163;-63
2022/05/20 10:00:04;;;;;;;5.22;1.35;;;14.50;99.90;;;;;;5090968;28;20229;-64
2022/05/20 10:02:41;;;;;;;7.13;1.15;;;14.40;99.90;;;;;;5091122;28;20246;-64
2022/05/20 10:05:37;;;;;;;5.20;1.20;;;14.60;99.90;;;;;;5090996;28;20175;-64
2022/05/20 10:08:27;;;;;;;7.82;1.38;;;14.70;99.90;;;;;;5090873;28;20199;-64
2022/05/20 10:11:10;;;;;;;4.32;1.17;;;14.70;99.90;;;;;;5090935;28;20224;-64
2022/05/20 10:13:40;;;;;;;7.82;1.35;;;14.60;99.90;;;;;;5090902;28;20168;-64
2022/05/20 10:16:26;;;;;;;5.78;1.40;;;14.60;99.90;;;;;;5090898;28;20175;-64
2022/05/20 10:19:15;;;;;;;8.00;1.40;;;14.90;99.90;;;;;;5095043;28;20182;-64
2022/05/20 10:21:51;;;;;;;6.43;1.25;;;15.10;99.90;;;;;;5094991;28;20623;-64
2022/05/20 10:24:38;;;;;;;6.55;1.67;;;15.80;99.90;;;;;;5094994;28;20225;-64
2022/05/20 10:27:35;;;;;;;8.57;1.92;;;16.30;99.90;;;;;;5094789;28;20171;-64
2022/05/20 10:33:07;;;;;;;5.40;1.30;;;16.50;99.90;;;;;;5094643;28;20653;-63
2022/05/20 10:36:10;;;;;;;3.97;1.40;;;16.50;99.90;;;;;;5094631;28;20179;-64
2022/05/20 10:38:49;;;;;;;5.13;1.27;;;16.00;99.90;;;;;;5094591;28;20630;-65
2022/05/20 10:41:39;;;;;;;5.35;1.17;;;15.70;99.90;;;;;;5094529;28;20171;-64
2022/05/20 10:50:08;;;;;;;5.15;1.17;;;16.00;99.90;;;;;;5094032;28;20272;-64
2022/05/20 10:52:53;;;;;;;6.10;1.10;;;16.50;99.90;;;;;;5094541;28;20171;-64
2022/05/20 10:55:49;;;;;;;6.30;1.25;;;16.80;99.90;;;;;;5094474;28;20572;-64
2022/05/20 10:58:40;;;;;;;6.13;1.42;;;16.70;99.90;;;;;;5094387;28;20180;-64
2022/05/20 11:01:20;;;;;;;4.57;1.38;;;16.40;99.90;;;;;;5094278;28;20218;-64
2022/05/20 11:03:51;;;;;;;5.20;1.30;;;16.60;99.90;;;;;;5094207;28;20250;-64
2022/05/20 11:06:39;;;;;;;4.32;1.23;;;16.40;99.90;;;;;;5094206;28;20172;-64
2022/05/20 11:09:38;;;;;;;7.68;1.13;;;16.40;99.90;;;;;;5094050;28;20294;-64
2022/05/20 11:12:05;;;;;;;7.35;1.20;;;16.40;99.90;;;;;;5080385;28;20208;-64
2022/05/20 11:15:01;;;;;;;3.05;1.20;;;16.00;99.90;;;;;;5094049;28;20172;-63
2022/05/20 11:17:42;;;;;;;8.32;1.30;;;15.90;99.90;;;;;;5094130;28;20176;-64
2022/05/20 11:20:13;;;;;;;5.80;1.20;;;16.10;99.90;;;;;;5094096;28;20175;-64
2022/05/20 11:22:57;;;;;;;4.90;1.45;;;15.90;99.90;;;;;;5093757;28;20503;-64
2022/05/20 11:25:46;;;;;;;6.72;1.20;;;15.80;99.90;;;;;;5093819;28;20171;-63
2022/05/20 11:28:44;;;;;;;6.00;1.38;;;16.10;99.90;;;;;;5092449;28;20184;-64
2022/05/20 11:31:44;;;;;;;6.35;1.33;;;16.40;99.90;;;;;;5089432;28;20191;-64
2022/05/20 11:34:13;;;;;;;4.88;1.40;;;16.90;99.90;;;;;;5092264;28;20164;-64
2022/05/20 11:37:00;;;;;;;7.78;1.38;;;17.90;99.90;;;;;;5093567;28;20508;-65
2022/05/20 11:39:26;;;;;;;5.93;1.17;;;18.40;99.90;;;;;;5093587;28;20207;-64
2022/05/20 11:42:04;;;;;;;4.85;1.23;;;18.90;99.90;;;;;;5093533;28;20176;-64
2022/05/20 11:44:49;;;;;;;8.57;1.67;;;19.30;99.90;;;;;;5093327;28;20173;-64
2022/05/20 11:47:26;;;;;;;7.78;1.00;;;18.90;99.90;;;;;;5093191;28;20168;-65
2022/05/20 11:50:07;;;;;;;4.68;1.40;;;18.90;99.90;;;;;;5093174;28;20219;-64
2022/05/20 11:52:57;;;;;;;6.70;1.35;;;19.70;99.90;;;;;;5093501;28;20172;-65
2022/05/20 11:55:33;;;;;;;6.43;1.30;;;20.50;99.90;;;;;;5093278;28;20172;-65
2022/05/20 11:58:15;;;;;;;7.32;1.40;;;21.20;99.90;;;;;;5093310;28;20258;-64
2022/05/20 12:00:42;;;;;;;4.75;1.00;;;20.80;99.90;;;;;;5093159;28;20178;-64
2022/05/20 12:03:19;;;;;;;6.80;1.27;;;20.10;99.90;;;;;;5093461;28;20180;-65
2022/05/20 12:05:49;;;;;;;6.90;1.23;;;19.40;99.90;;;;;;5093148;28;20229;-64
2022/05/20 12:08:42;;;;;;;6.25;1.10;;;19.80;99.90;;;;;;5093106;28;20183;-63
2022/05/20 12:11:20;;;;;;;9.10;1.10;;;19.80;99.90;;;;;;5093088;28;20176;-64
2022/05/20 12:13:57;;;;;;;6.03;1.23;;;19.50;99.90;;;;;;5092796;28;20638;-63
2022/05/20 12:16:23;;;;;;;10.40;1.40;;;20.20;99.90;;;;;;5092840;28;20180;-63
2022/05/20 12:24:49;;;;;;;12.10;1.40;;;20.70;99.90;;;;;;5092697;28;20237;-64
2022/05/20 12:27:22;;;;;;;11.65;1.50;;;20.70;99.90;;;;;;5092675;28;20351;-64
2022/05/20 12:30:08;;;;;;;4.60;1.15;;;20.50;99.90;;;;;;5092353;28;20605;-65
2022/05/20 12:32:37;;;;;;;5.68;1.42;;;20.90;99.90;;;;;;5092320;28;20183;-64
2022/05/20 12:35:13;;;;;;;5.55;1.10;;;20.90;99.90;;;;;;5092424;28;20233;-64
2022/05/20 12:37:42;;;;;;;5.85;1.20;;;20.20;99.90;;;;;;5092393;28;20163;-62
2022/05/20 12:40:28;;;;;;;9.07;1.38;;;19.20;99.90;;;;;;5092003;28;20168;-64
2022/05/20 12:42:57;;;;;;;5.10;1.17;;;19.20;99.90;;;;;;5092321;28;20229;-63
2022/05/20 12:45:25;;;;;;;11.45;1.40;;;19.10;99.90;;;;;;5092295;28;20258;-64
2022/05/20 12:47:50;;;;;;;4.93;1.30;;;19.00;99.90;;;;;;5092168;28;20172;-65
2022/05/20 12:50:16;;;;;;;4.57;1.05;;;20.30;99.90;;;;;;5091671;28;20238;-64
2022/05/20 12:52:46;;;;;;;4.88;1.20;;;20.70;99.90;;;;;;5092032;28;20175;-64
2022/05/20 12:55:27;;;;;;;6.35;1.20;;;19.90;99.90;;;;;;5092239;28;20171;-64
2022/05/20 12:57:58;;;;;;;6.13;0.90;;;19.10;99.90;;;;;;5092086;28;20176;-64
2022/05/20 13:00:41;;;;;;;10.70;1.50;;;18.70;99.90;;;;;;5091905;28;20172;-64
2022/05/20 13:03:19;;;;;;;5.35;1.00;;;19.00;99.90;;;;;;5091842;28;20211;-64
2022/05/20 13:05:50;;;;;;;5.80;1.33;;;19.50;99.90;;;;;;5091712;28;20216;-64
2022/05/20 13:08:19;;;;;;;6.13;1.50;;;19.10;99.90;;;;;;5091926;28;20192;-64
2022/05/20 13:10:44;;;;;;;6.60;1.50;;;18.70;99.90;;;;;;5091719;28;20306;-64
2022/05/20 13:13:14;;;;;;;12.18;1.60;;;18.60;99.90;;;;;;5091719;28;20199;-63
2022/05/20 13:15:55;;;;;;;5.40;1.17;;;18.60;99.90;;;;;;5091750;28;20183;-64
2022/05/20 13:18:32;;;;;;;8.38;1.45;;;18.60;99.90;;;;;;5091695;28;20166;-65
2022/05/20 13:21:16;;;;;;;4.80;1.33;;;18.90;99.90;;;;;;5091423;28;20228;-62
2022/05/20 13:23:45;;;;;;;6.43;1.25;;;19.30;99.90;;;;;;5091827;28;20172;-66
2022/05/20 13:26:23;;;;;;;7.45;1.15;;;19.90;99.90;;;;;;5092402;28;20172;-66
2022/05/20 13:28:50;;;;;;;7.80;1.23;;;20.10;99.90;;;;;;5091961;28;20298;-65
2022/05/20 13:31:24;;;;;;;5.80;1.20;;;19.70;99.90;;;;;;5091404;28;20199;-62
2022/05/20 13:33:51;;;;;;;7.32;1.50;;;19.60;99.90;;;;;;5091092;28;20167;-63
2022/05/20 13:36:21;;;;;;;8.77;1.33;;;19.30;99.90;;;;;;5091091;28;20610;-63
2022/05/20 13:38:52;;;;;;;4.57;1.20;;;19.50;99.90;;;;;;5089678;28;20187;-64
2022/05/20 13:41:23;;;;;;;7.65;0.90;;;19.60;99.90;;;;;;5091070;28;20171;-64
2022/05/20 13:43:52;;;;;;;9.50;1.50;;;20.00;99.90;;;;;;5091044;28;20168;-63